Time;durP1;ratioP1;P1;durP2;ratioP2;P2;SDS_P1;SDS_P2;PMS_P1;PMS_P2;Temp;Humidity;BMP_temperature;BMP_pressure;BME280_temperature;BME280_humidity;BME280_pressure;Samples;Min_cycle;Max_cycle;Signal;HPM_P1;HPM_P2
2023/10/18 05:20:58;;;;;;;9.35;4.40;;;;;;;1.69;100.00;101633.00;6124971;23;20051;-82
2023/10/18 05:23:26;;;;;;;7.63;3.88;;;;;;;1.66;100.00;101624.66;6133517;23;20024;-81
2023/10/18 05:26:17;;;;;;;5.90;4.13;;;;;;;1.62;100.00;101619.75;6106606;23;20021;-80
2023/10/18 05:29:00;;;;;;;6.47;3.42;;;;;;;1.60;100.00;101627.03;6101713;23;20023;-82
2023/10/18 05:32:05;;;;;;;5.00;3.40;;;;;;;1.57;100.00;101622.16;6102319;23;20547;-80
2023/10/18 05:41:59;;;;;;;9.32;4.05;;;;;;;1.48;100.00;101627.72;6129036;23;20064;-80
2023/10/18 05:44:29;;;;;;;8.30;3.92;;;;;;;1.46;100.00;101613.91;6103528;23;20032;-81
2023/10/18 05:46:55;;;;;;;6.07;3.90;;;;;;;1.42;100.00;101607.38;6079615;23;20014;-80
2023/10/18 05:49:23;;;;;;;7.10;4.20;;;;;;;1.38;100.00;101616.69;6102900;23;20024;-83
2023/10/18 05:51:53;;;;;;;5.43;3.53;;;;;;;1.36;100.00;101622.97;6127997;23;20037;-80
2023/10/18 05:54:21;;;;;;;5.97;4.03;;;;;;;1.34;100.00;101627.59;6126982;23;20014;-81
2023/10/18 05:56:53;;;;;;;6.40;4.38;;;;;;;1.31;100.00;101633.25;6131432;23;20077;-83
2023/10/18 06:01:46;;;;;;;6.53;3.95;;;;;;;1.30;100.00;101631.63;6114682;23;20013;-82
2023/10/18 06:04:13;;;;;;;5.88;4.20;;;;;;;1.33;100.00;101636.53;6113749;23;20092;-81
2023/10/18 06:06:39;;;;;;;6.80;4.30;;;;;;;1.36;100.00;101635.34;6114124;23;20013;-82
2023/10/18 06:09:10;;;;;;;7.38;4.45;;;;;;;1.37;100.00;101636.97;6139789;23;20018;-81
2023/10/18 06:11:37;;;;;;;6.40;4.00;;;;;;;1.36;100.00;101625.59;6116055;23;20018;-81
2023/10/18 06:14:08;;;;;;;6.88;4.35;;;;;;;1.38;100.00;101622.78;6114348;23;20010;-81
2023/10/18 06:16:35;;;;;;;7.50;4.13;;;;;;;1.40;100.00;101625.22;6096152;23;20025;-82
2023/10/18 06:19:07;;;;;;;6.18;4.10;;;;;;;1.39;100.00;101613.03;6116527;23;20030;-81
2023/10/18 06:21:37;;;;;;;6.10;3.60;;;;;;;1.41;100.00;101622.38;6132583;23;20073;-81
2023/10/18 06:24:11;;;;;;;5.05;3.60;;;;;;;1.42;100.00;101629.28;6109604;23;20010;-81
2023/10/18 06:26:40;;;;;;;8.30;4.30;;;;;;;1.44;100.00;101615.94;6085342;23;20157;-81
2023/10/18 06:29:09;;;;;;;7.63;5.18;;;;;;;1.43;100.00;101614.31;6129089;23;20014;-82
2023/10/18 06:31:43;;;;;;;9.27;5.30;;;;;;;1.52;100.00;101618.44;6107369;23;20013;-81
2023/10/18 06:34:15;;;;;;;7.55;4.00;;;;;;;1.57;100.00;101613.44;6110089;23;20014;-81
2023/10/18 06:36:41;;;;;;;7.57;4.68;;;;;;;1.62;100.00;101606.53;6110489;23;20090;-81
2023/10/18 06:39:07;;;;;;;6.55;4.18;;;;;;;1.67;100.00;101600.72;6107997;23;20028;-81
2023/10/18 06:41:34;;;;;;;6.72;3.88;;;;;;;1.76;100.00;101617.22;6135088;23;20017;-81
2023/10/18 06:44:00;;;;;;;5.95;4.10;;;;;;;1.77;100.00;101609.13;6134555;23;20033;-82
2023/10/18 06:46:27;;;;;;;8.65;4.43;;;;;;;1.85;100.00;101609.00;6109643;23;20033;-80
2023/10/18 06:48:55;;;;;;;6.65;3.97;;;;;;;1.94;100.00;101600.94;6134118;23;20014;-81
2023/10/18 06:51:31;;;;;;;7.43;4.00;;;;;;;2.01;100.00;101607.91;6134881;23;20010;-82
2023/10/18 06:54:03;;;;;;;5.53;3.60;;;;;;;2.12;100.00;101603.91;6110661;23;20018;-81
2023/10/18 06:56:32;;;;;;;5.65;3.13;;;;;;;2.27;100.00;101607.28;6086165;23;20046;-81
2023/10/18 06:59:06;;;;;;;6.30;3.30;;;;;;;2.33;100.00;101595.94;6083259;23;20042;-81
2023/10/18 07:01:33;;;;;;;4.60;3.60;;;;;;;2.39;100.00;101607.56;6082344;23;20021;-81
2023/10/18 07:04:00;;;;;;;5.55;3.45;;;;;;;2.49;100.00;101605.38;6082417;23;20014;-81
2023/10/18 07:06:30;;;;;;;5.82;3.30;;;;;;;2.50;100.00;101593.78;6106905;23;20016;-81
2023/10/18 07:09:09;;;;;;;6.90;3.58;;;;;;;2.57;100.00;101586.69;6116387;23;20009;-81
2023/10/18 07:11:37;;;;;;;6.50;3.60;;;;;;;2.62;100.00;101589.56;6137114;23;20056;-81
2023/10/18 07:14:12;;;;;;;7.95;3.50;;;;;;;2.67;100.00;101583.69;6106399;23;20077;-81
2023/10/18 07:16:42;;;;;;;7.50;3.80;;;;;;;2.73;100.00;101588.19;6082769;23;20112;-81
2023/10/18 07:21:52;;;;;;;9.27;3.53;;;;;;;2.87;100.00;101589.06;6134470;23;20089;-81
2023/10/18 07:24:20;;;;;;;6.78;4.03;;;;;;;2.95;100.00;101594.19;6111017;23;20068;-81
2023/10/18 07:26:47;;;;;;;7.03;3.90;;;;;;;2.96;100.00;101588.69;6108104;23;20072;-81
2023/10/18 07:29:15;;;;;;;8.05;3.53;;;;;;;3.09;100.00;101579.16;6131149;23;20073;-81
2023/10/18 07:31:47;;;;;;;7.85;3.88;;;;;;;3.15;100.00;101573.06;6135379;23;20013;-81
2023/10/18 07:34:25;;;;;;;7.00;4.40;;;;;;;3.23;100.00;101571.06;6109926;23;20014;-81
2023/10/18 07:36:54;;;;;;;7.00;3.60;;;;;;;3.33;100.00;101575.97;6134416;23;20360;-81
2023/10/18 07:39:24;;;;;;;8.73;4.13;;;;;;;3.35;100.00;101563.34;6111350;23;20022;-81
2023/10/18 07:41:51;;;;;;;8.73;4.43;;;;;;;3.45;100.00;101562.94;6112919;23;20014;-82
2023/10/18 07:44:17;;;;;;;8.43;4.22;;;;;;;3.52;100.00;101556.66;6112923;23;20013;-82
2023/10/18 07:46:43;;;;;;;7.47;3.95;;;;;;;3.62;100.00;101560.72;6138772;23;20070;-82
2023/10/18 07:49:15;;;;;;;7.13;3.53;;;;;;;3.75;100.00;101558.06;6087924;23;20021;-80
2023/10/18 07:51:48;;;;;;;6.03;3.78;;;;;;;3.86;100.00;101569.88;6137025;23;20006;-81
2023/10/18 07:54:20;;;;;;;4.95;3.38;;;;;;;3.88;100.00;101552.75;6111214;23;20014;-81
2023/10/18 07:56:49;;;;;;;4.88;3.33;;;;;;;3.99;100.00;101560.06;6111967;23;20057;-82
2023/10/18 07:59:29;;;;;;;6.75;3.72;;;;;;;4.11;100.00;101555.78;6135207;23;20018;-81
2023/10/18 08:04:48;;;;;;;5.13;3.30;;;;;;;4.29;100.00;101549.03;6138484;23;20006;-81
2023/10/18 08:07:15;;;;;;;6.93;2.88;;;;;;;4.41;100.00;101546.56;6118655;23;20010;-82
2023/10/18 08:09:43;;;;;;;5.72;3.78;;;;;;;4.49;100.00;101536.53;6095851;23;20069;-81
2023/10/18 08:14:50;;;;;;;6.05;3.67;;;;;;;4.64;100.00;101526.44;6143560;23;20041;-82
2023/10/18 08:20:29;;;;;;;5.68;3.40;;;;;;;4.83;100.00;101523.91;6147782;23;20013;-82
2023/10/18 08:23:05;;;;;;;4.80;3.30;;;;;;;4.92;100.00;101518.13;6118235;23;20017;-82
2023/10/18 08:25:31;;;;;;;5.20;3.20;;;;;;;4.92;100.00;101506.72;6112972;23;20037;-82
2023/10/18 08:28:01;;;;;;;4.95;3.30;;;;;;;4.98;100.00;101516.47;6112458;23;20053;-81
2023/10/18 08:33:09;;;;;;;5.28;3.65;;;;;;;5.12;100.00;101501.28;6140543;23;20399;-81
2023/10/18 08:35:37;;;;;;;6.30;3.35;;;;;;;5.23;100.00;101515.72;6119175;23;20021;-81
2023/10/18 08:38:04;;;;;;;5.95;3.95;;;;;;;5.25;100.00;101511.00;6118874;23;20077;-81
2023/10/18 08:43:28;;;;;;;6.57;4.35;;;;;;;5.48;100.00;101511.22;6174613;23;19913;-82
2023/10/18 08:45:56;;;;;;;6.80;3.15;;;;;;;5.55;100.00;101511.97;6177978;23;19997;-82
2023/10/18 08:48:28;;;;;;;4.45;3.35;;;;;;;5.59;100.00;101501.75;6159872;23;19998;-81
2023/10/18 08:51:02;;;;;;;5.90;4.05;;;;;;;5.68;100.00;101505.72;6104095;23;20008;-82
2023/10/18 08:53:33;;;;;;;9.00;3.88;;;;;;;5.81;100.00;101504.81;6078748;23;20029;-82
2023/10/18 08:56:05;;;;;;;7.25;3.45;;;;;;;5.88;100.00;101500.22;6103274;23;20082;-82
2023/10/18 08:58:33;;;;;;;5.50;3.53;;;;;;;5.93;100.00;101495.91;6066126;23;20014;-82
2023/10/18 09:06:30;;;;;;;6.78;3.35;;;;;;;6.23;100.00;101490.72;6081209;23;20074;-80
2023/10/18 09:09:35;;;;;;;8.40;3.38;;;;;;;6.31;100.00;101494.09;6030027;23;20019;-80
2023/10/18 09:11:51;;;;;;;5.53;3.80;;;;;;;6.41;100.00;101489.06;6076646;23;20074;-80
2023/10/18 09:14:20;;;;;;;6.90;3.75;;;;;;;6.50;100.00;101482.38;6011105;23;20327;-83
2023/10/18 09:16:47;;;;;;;6.85;4.50;;;;;;;6.60;100.00;101482.66;6030149;23;20018;-80
2023/10/18 09:19:14;;;;;;;5.82;3.90;;;;;;;6.68;100.00;101484.19;6099234;23;20014;-80
2023/10/18 09:24:30;;;;;;;5.95;3.78;;;;;;;6.90;100.00;101477.31;6128320;23;20018;-82
2023/10/18 09:26:58;;;;;;;7.68;3.70;;;;;;;7.00;100.00;101469.63;6119407;23;20057;-80
2023/10/18 09:29:28;;;;;;;5.53;3.58;;;;;;;7.15;100.00;101477.16;6100454;23;20000;-81
2023/10/18 09:32:03;;;;;;;6.47;3.80;;;;;;;7.24;100.00;101483.78;6117210;23;20025;-79
2023/10/18 09:34:33;;;;;;;9.40;3.75;;;;;;;7.41;100.00;101491.13;6124552;23;20014;-79
2023/10/18 09:36:59;;;;;;;5.15;3.55;;;;;;;7.44;100.00;101479.97;6115419;23;20010;-81
2023/10/18 09:39:37;;;;;;;4.45;2.70;;;;;;;7.53;100.00;101481.28;6111789;23;20101;-81
2023/10/18 09:42:05;;;;;;;4.95;3.45;;;;;;;7.61;100.00;101470.28;6115288;23;20050;-80
2023/10/18 09:44:31;;;;;;;4.90;3.58;;;;;;;7.66;100.00;101471.22;6105377;23;20014;-81
2023/10/18 09:46:59;;;;;;;6.53;3.30;;;;;;;7.74;100.00;101478.03;6099012;23;20029;-81
2023/10/18 09:49:26;;;;;;;6.20;3.42;;;;;;;7.84;100.00;101466.78;6098085;23;20018;-79
2023/10/18 09:51:53;;;;;;;5.25;2.80;;;;;;;7.92;100.00;101469.91;6121468;23;20049;-79
2023/10/18 09:54:22;;;;;;;;;;;;;;;8.00;100.00;101465.25;6097873;23;20021;-79
2023/10/18 09:56:54;;;;;;;3.83;2.80;;;;;;;8.10;100.00;101462.78;6126181;23;19913;-79
2023/10/18 09:59:30;;;;;;;6.32;3.50;;;;;;;8.17;100.00;101450.94;6106730;23;20013;-78
2023/10/18 10:02:00;;;;;;;4.18;2.88;;;;;;;8.23;100.00;101454.53;6079212;23;20044;-80
2023/10/18 10:04:32;;;;;;;5.47;3.08;;;;;;;8.25;100.00;101452.44;6114868;23;20078;-80
2023/10/18 10:09:50;;;;;;;6.40;2.42;;;;;;;8.40;100.00;101442.09;6104878;23;20013;-80
2023/10/18 10:12:27;;;;;;;4.18;2.30;;;;;;;8.50;100.00;101433.47;6108273;23;20065;-79
2023/10/18 10:14:54;;;;;;;6.88;1.90;;;;;;;8.66;100.00;101437.22;6133373;23;20110;-79
2023/10/18 10:17:28;;;;;;;2.97;1.88;;;;;;;8.74;100.00;101434.19;6083841;23;20002;-80
2023/10/18 10:20:10;;;;;;;3.88;1.90;;;;;;;8.79;100.00;101428.91;6138624;23;20016;-81
2023/10/18 10:23:04;;;;;;;3.65;1.77;;;;;;;8.92;100.00;101425.13;5995947;23;20114;-80
2023/10/18 10:25:48;;;;;;;3.15;2.08;;;;;;;8.94;100.00;101417.66;6002733;23;20163;-80
2023/10/18 11:39:18;;;;;;;3.00;1.75;;;;;;;10.19;100.00;101311.03;6111016;23;20356;-80
2023/10/18 11:41:48;;;;;;;4.53;2.17;;;;;;;10.21;100.00;101316.94;6134701;23;20014;-80
2023/10/18 11:44:32;;;;;;;4.55;2.00;;;;;;;10.23;100.00;101313.00;6093825;23;20021;-81
2023/10/18 11:49:57;;;;;;;4.28;2.20;;;;;;;10.31;100.00;101306.38;6134434;23;20086;-80
2023/10/18 11:52:25;;;;;;;3.75;2.33;;;;;;;10.30;100.00;101305.56;6137938;23;20009;-79
2023/10/18 11:54:52;;;;;;;3.40;2.25;;;;;;;10.34;100.00;101292.47;6120048;23;20022;-79
2023/10/18 11:57:35;;;;;;;5.15;2.10;;;;;;;10.34;100.00;101293.25;6142475;23;20018;-82
2023/10/18 12:00:26;;;;;;;4.55;2.35;;;;;;;10.32;100.00;101283.88;6117327;23;20089;-80
2023/10/18 12:02:55;;;;;;;3.65;2.55;;;;;;;10.25;100.00;101277.94;6148836;23;19998;-80
2023/10/18 12:05:27;;;;;;;6.03;2.28;;;;;;;10.31;100.00;101274.25;6138644;23;20082;-80
2023/10/18 12:08:05;;;;;;;3.70;2.42;;;;;;;10.41;100.00;101276.19;6137942;23;20097;-79
2023/10/18 12:10:34;;;;;;;3.95;2.17;;;;;;;10.43;100.00;101268.69;6143364;23;20016;-80
2023/10/18 12:13:12;;;;;;;4.80;2.60;;;;;;;10.41;100.00;101277.00;6114663;23;20018;-80
2023/10/18 12:27:34;;;;;;;4.72;2.42;;;;;;;10.44;100.00;101249.72;6080352;23;19924;-82
2023/10/18 12:55:36;;;;;;;4.22;2.22;;;;;;;10.51;100.00;101195.94;6133837;23;20025;-82
2023/10/18 13:03:57;;;;;;;3.15;2.40;;;;;;;10.54;100.00;101174.78;6096641;23;20013;-82
2023/10/18 13:32:22;;;;;;;5.75;3.30;;;;;;;10.52;100.00;101133.28;6074760;23;20033;-80
2023/10/18 14:35:52;;;;;;;7.03;3.30;;;;;;;10.32;100.00;101000.91;6083391;23;20030;-81
2023/10/18 15:17:47;;;;;;;4.20;2.33;;;;;;;9.63;100.00;100939.53;6097645;23;20042;-79
2023/10/18 17:28:34;;;;;;;6.22;4.00;;;;;;;7.76;100.00;100836.06;6073083;23;20029;31
2023/10/18 18:25:34;;;;;;;4.22;2.70;;;;;;;7.83;100.00;100756.69;6070976;23;20028;-80
2023/10/18 19:21:18;;;;;;;5.75;2.97;;;;;;;7.70;100.00;100698.44;6084685;23;20003;-79
2023/10/18 19:26:47;;;;;;;4.70;3.63;;;;;;;7.69;100.00;100686.16;6052444;23;20023;-82
2023/10/18 19:58:04;;;;;;;5.13;3.53;;;;;;;7.70;100.00;100647.78;6065750;23;20059;-79
2023/10/18 20:24:14;;;;;;;6.60;4.30;;;;;;;7.63;100.00;100626.66;6046303;23;1599401;-82
2023/10/18 20:26:40;;;;;;;7.40;4.05;;;;;;;7.61;100.00;100617.31;6068480;23;20038;-79
2023/10/18 20:34:53;;;;;;;5.85;4.68;;;;;;;7.54;100.00;100582.09;6054644;23;20078;-79
2023/10/18 20:43:18;;;;;;;6.83;4.97;;;;;;;7.52;100.00;100578.84;6070837;23;20022;31
2023/10/18 21:00:09;;;;;;;7.95;5.07;;;;;;;7.45;100.00;100551.59;6115774;23;20024;-81
2023/10/18 21:11:12;;;;;;;7.57;4.57;;;;;;;7.44;100.00;100550.00;6078220;23;20002;-80
2023/10/18 21:16:34;;;;;;;8.27;4.80;;;;;;;7.39;100.00;100530.25;6096612;23;20030;-79
2023/10/18 21:19:01;;;;;;;7.75;4.45;;;;;;;7.42;100.00;100536.13;6058935;23;20010;-81
2023/10/18 21:24:15;;;;;;;10.07;5.13;;;;;;;7.35;100.00;100507.03;6089349;23;19909;-82
2023/10/18 21:35:11;;;;;;;8.02;5.25;;;;;;;7.31;100.00;100476.63;6082311;23;20022;-78
2023/10/18 21:37:43;;;;;;;6.85;4.93;;;;;;;7.32;100.00;100478.25;6079210;23;20025;-80
2023/10/18 21:42:43;;;;;;;6.57;4.55;;;;;;;7.26;100.00;100469.41;6095556;23;20054;-81
2023/10/18 21:48:16;;;;;;;8.30;4.30;;;;;;;7.25;100.00;100462.47;6110169;23;20035;-80
2023/10/18 21:53:38;;;;;;;7.47;5.40;;;;;;;7.21;100.00;100453.38;6105687;23;20017;-83
2023/10/18 21:56:06;;;;;;;7.07;4.72;;;;;;;7.21;100.00;100456.03;6068052;23;20049;-80
2023/10/18 22:01:29;;;;;;;7.72;5.10;;;;;;;7.23;100.00;100440.59;6107121;23;20022;-80
2023/10/18 22:10:06;;;;;;;6.65;4.90;;;;;;;7.22;100.00;100412.38;6073925;23;20027;31
2023/10/18 22:18:20;;;;;;;6.32;4.32;;;;;;;7.20;100.00;100395.84;6146401;23;20116;-80
2023/10/18 22:23:48;;;;;;;7.10;4.70;;;;;;;7.17;100.00;100388.34;6092253;23;20018;-80
2023/10/18 22:26:20;;;;;;;8.23;4.50;;;;;;;7.16;100.00;100384.09;6101525;23;20329;-82
2023/10/18 22:31:36;;;;;;;6.43;4.63;;;;;;;7.18;100.00;100386.50;6152382;23;20009;-81
2023/10/18 22:34:03;;;;;;;;;;;;;;;7.21;100.00;100394.78;6089153;23;20018;-81
2023/10/18 22:36:35;;;;;;;6.30;4.03;;;;;;;7.18;100.00;100379.34;6151252;23;19921;-80
2023/10/18 22:39:12;;;;;;;8.18;5.05;;;;;;;7.14;100.00;100375.56;6173472;23;20001;-80
2023/10/18 22:41:46;;;;;;;7.03;4.32;;;;;;;7.18;100.00;100378.50;6073018;23;20010;-81
2023/10/18 22:50:37;;;;;;;7.72;4.68;;;;;;;7.19;100.00;100362.28;6099126;23;20032;-81
2023/10/18 22:55:56;;;;;;;8.10;5.03;;;;;;;7.17;100.00;100353.72;6071697;23;20014;-80
2023/10/18 22:58:29;;;;;;;7.30;5.10;;;;;;;7.17;100.00;100348.41;6094919;23;20037;-80
2023/10/18 23:01:00;;;;;;;7.05;5.35;;;;;;;7.15;100.00;100334.56;6097832;23;20061;-80
2023/10/18 23:06:24;;;;;;;7.88;4.63;;;;;;;7.17;100.00;100307.66;6115447;23;20018;-82
2023/10/18 23:09:07;;;;;;;7.80;5.07;;;;;;;7.14;100.00;100294.88;6055496;23;20034;-80
2023/10/18 23:11:50;;;;;;;7.18;4.57;;;;;;;7.17;100.00;100294.34;6088055;23;20078;-81
2023/10/18 23:22:14;;;;;;;7.95;5.20;;;;;;;7.12;100.00;100268.50;6113808;23;20002;-80
2023/10/18 23:24:40;;;;;;;6.78;5.10;;;;;;;7.16;100.00;100266.91;6049369;23;20022;-79
2023/10/18 23:38:51;;;;;;;9.27;5.43;;;;;;;7.15;100.00;100262.66;6075901;23;20025;-80
2023/10/18 23:44:09;;;;;;;9.73;6.00;;;;;;;7.08;100.00;100232.78;6111155;23;20002;-82
2023/10/18 23:47:00;;;;;;;9.68;6.97;;;;;;;7.08;100.00;100232.78;6014948;23;20018;-80
2023/10/18 23:52:36;;;;;;;7.30;5.63;;;;;;;7.07;100.00;100218.69;6089372;23;20022;-81
2023/10/18 23:55:13;;;;;;;9.52;5.50;;;;;;;7.05;100.00;100218.16;6118575;23;20006;-80
